Time;durP1;ratioP1;P1;durP2;ratioP2;P2;SDS_P1;SDS_P2;PMS_P1;PMS_P2;Temp;Humidity;BMP_temperature;BMP_pressure;BME280_temperature;BME280_humidity;BME280_pressure;Samples;Min_cycle;Max_cycle;Signal;HPM_P1;HPM_P2
2021/04/17 00:00:56;;;;;;;11.93;4.07;;;;;;;;;;5156454;27;20500;-68
2021/04/17 00:03:22;;;;;;;14.93;4.85;;;;;;;;;;5133406;27;20057;-68
2021/04/17 00:05:49;;;;;;;11.07;4.45;;;;;;;;;;5143676;27;20066;-68
2021/04/17 00:08:15;;;;;;;13.38;4.63;;;;;;;;;;5147287;27;20095;-68
2021/04/17 00:10:42;;;;;;;10.98;4.40;;;;;;;;;;5120897;27;20303;-68
2021/04/17 00:13:08;;;;;;;8.82;4.45;;;;;;;;;;5144907;27;20043;-68
2021/04/17 00:15:34;;;;;;;13.57;4.55;;;;;;;;;;5137022;27;20494;-68
2021/04/17 00:18:00;;;;;;;10.98;4.57;;;;;;;;;;5111401;27;20095;-68
2021/04/17 00:20:26;;;;;;;14.45;4.40;;;;;;;;;;5093607;27;20149;-68
2021/04/17 00:22:53;;;;;;;14.00;4.78;;;;;;;;;;5140880;27;20456;-68
2021/04/17 00:25:19;;;;;;;11.63;5.70;;;;;;;;;;5146312;27;20061;-67
2021/04/17 00:27:45;;;;;;;16.85;8.82;;;;;;;;;;5142905;27;20034;-68
2021/04/17 00:30:11;;;;;;;21.30;10.00;;;;;;;;;;5155287;27;20039;-68
2021/04/17 00:32:37;;;;;;;16.88;10.52;;;;;;;;;;5133191;27;20035;-67
2021/04/17 00:35:04;;;;;;;20.88;11.30;;;;;;;;;;5150805;27;20121;-68
2021/04/17 00:37:30;;;;;;;16.45;10.23;;;;;;;;;;5137231;27;20040;-68
2021/04/17 00:39:56;;;;;;;19.95;11.02;;;;;;;;;;5148414;27;20432;-68
2021/04/17 00:42:23;;;;;;;21.58;11.05;;;;;;;;;;5126067;27;20524;-68
2021/04/17 00:44:49;;;;;;;23.20;12.70;;;;;;;;;;5139410;27;20049;-68
2021/04/17 00:47:15;;;;;;;19.02;13.02;;;;;;;;;;5127510;27;20082;-67
2021/04/17 00:49:42;;;;;;;21.90;13.52;;;;;;;;;;5124936;27;20031;-68
2021/04/17 00:52:08;;;;;;;23.42;13.85;;;;;;;;;;5145612;27;20047;-68
2021/04/17 00:54:34;;;;;;;23.98;13.25;;;;;;;;;;5132098;27;20042;-68
2021/04/17 00:57:01;;;;;;;17.02;12.20;;;;;;;;;;5153742;27;20398;-68
2021/04/17 00:59:27;;;;;;;22.13;10.00;;;;;;;;;;5153209;27;20529;-68
2021/04/17 01:01:53;;;;;;;13.32;8.65;;;;;;;;;;5154477;27;20052;-68
2021/04/17 01:04:30;;;;;;;14.07;8.23;;;;;;;;;;5152368;27;20042;-67
2021/04/17 01:07:03;;;;;;;12.60;6.75;;;;;;;;;;5139872;27;20053;-68
2021/04/17 01:09:50;;;;;;;14.27;6.28;;;;;;;;;;5136501;27;20050;-68
2021/04/17 01:12:17;;;;;;;14.40;5.20;;;;;;;;;;5148768;27;20042;-68
2021/04/17 01:14:45;;;;;;;12.30;5.78;;;;;;;;;;5148692;27;20485;-68
2021/04/17 01:17:12;;;;;;;12.90;4.75;;;;;;;;;;5122833;27;20102;-68
2021/04/17 01:19:39;;;;;;;9.23;4.88;;;;;;;;;;5137040;27;20035;-68
2021/04/17 01:22:09;;;;;;;10.48;5.40;;;;;;;;;;5130067;27;20050;-68
2021/04/17 01:24:36;;;;;;;13.40;4.78;;;;;;;;;;5124287;27;20042;-68
2021/04/17 01:27:03;;;;;;;10.48;4.72;;;;;;;;;;5146396;27;20049;-67
2021/04/17 01:29:30;;;;;;;11.95;4.72;;;;;;;;;;5142015;27;20082;-67
2021/04/17 01:31:57;;;;;;;7.60;4.40;;;;;;;;;;5146431;27;20035;-67
2021/04/17 01:34:23;;;;;;;14.10;4.80;;;;;;;;;;5145851;27;20035;-67
2021/04/17 01:36:50;;;;;;;14.10;5.20;;;;;;;;;;5144455;27;20027;-67
2021/04/17 01:39:20;;;;;;;10.30;5.50;;;;;;;;;;5147499;27;20431;-67
2021/04/17 01:41:48;;;;;;;9.23;5.35;;;;;;;;;;5134520;27;20071;-67
2021/04/17 01:44:25;;;;;;;14.27;5.65;;;;;;;;;;5141389;27;20421;-68
2021/04/17 01:46:55;;;;;;;13.27;5.75;;;;;;;;;;5122531;27;20046;-68
2021/04/17 01:49:23;;;;;;;9.90;5.10;;;;;;;;;;5140691;27;20035;-67
2021/04/17 01:51:52;;;;;;;10.40;5.47;;;;;;;;;;5136832;27;20505;-68
2021/04/17 01:54:20;;;;;;;11.45;4.88;;;;;;;;;;5136566;27;20065;-68
2021/04/17 01:56:48;;;;;;;13.10;5.50;;;;;;;;;;5118036;27;20470;-68
2021/04/17 01:59:16;;;;;;;12.23;4.68;;;;;;;;;;5137025;27;20428;-68
2021/04/17 02:01:42;;;;;;;16.60;5.38;;;;;;;;;;5124092;27;20457;-67
2021/04/17 02:04:08;;;;;;;13.07;4.55;;;;;;;;;;5139546;27;20073;-68
2021/04/17 02:06:35;;;;;;;14.13;5.07;;;;;;;;;;5128893;27;20042;-67
2021/04/17 02:09:02;;;;;;;15.00;5.22;;;;;;;;;;5138299;27;20051;-67
2021/04/17 02:11:29;;;;;;;19.30;5.18;;;;;;;;;;5139461;27;20066;-67
2021/04/17 02:13:55;;;;;;;12.88;5.18;;;;;;;;;;5147590;27;20054;-67
2021/04/17 02:16:28;;;;;;;11.10;5.10;;;;;;;;;;5146699;27;20049;-68
2021/04/17 02:19:05;;;;;;;14.13;5.10;;;;;;;;;;5136602;27;20042;-68
2021/04/17 02:21:33;;;;;;;9.52;4.03;;;;;;;;;;5141938;27;20050;-67
2021/04/17 02:24:00;;;;;;;10.35;4.38;;;;;;;;;;5146796;27;20023;-67
2021/04/17 02:26:27;;;;;;;16.15;4.32;;;;;;;;;;5138256;27;20035;-67
2021/04/17 02:28:53;;;;;;;11.05;4.10;;;;;;;;;;5142926;27;20111;-67
2021/04/17 02:31:19;;;;;;;11.43;3.83;;;;;;;;;;5125361;27;20038;-67
2021/04/17 02:33:46;;;;;;;6.88;3.70;;;;;;;;;;5148937;27;20122;-67
2021/04/17 02:36:12;;;;;;;7.57;4.38;;;;;;;;;;5134846;27;20121;-67
2021/04/17 02:38:38;;;;;;;14.15;4.30;;;;;;;;;;5145898;27;20043;-68
2021/04/17 02:41:04;;;;;;;12.07;4.07;;;;;;;;;;5123130;27;20108;-68
2021/04/17 02:43:30;;;;;;;15.00;4.88;;;;;;;;;;5135297;27;20050;-67
2021/04/17 02:45:56;;;;;;;9.40;3.95;;;;;;;;;;5142902;27;20046;-67
2021/04/17 02:48:22;;;;;;;11.25;4.10;;;;;;;;;;5130501;27;20046;-67
2021/04/17 02:50:49;;;;;;;17.60;5.30;;;;;;;;;;5135845;27;20039;-69
2021/04/17 02:53:15;;;;;;;11.38;4.68;;;;;;;;;;5129513;27;20126;-67
2021/04/17 02:55:41;;;;;;;14.05;4.75;;;;;;;;;;5125161;27;20030;-68
2021/04/17 02:58:07;;;;;;;8.55;4.47;;;;;;;;;;5145137;27;20386;-68
2021/04/17 03:00:33;;;;;;;6.63;3.80;;;;;;;;;;5147732;27;20043;-67
2021/04/17 03:02:59;;;;;;;10.75;3.85;;;;;;;;;;5129135;27;20088;-67
2021/04/17 03:05:25;;;;;;;12.60;4.40;;;;;;;;;;5153063;27;20049;-67
2021/04/17 03:07:52;;;;;;;9.20;3.83;;;;;;;;;;5153022;27;20084;-67
2021/04/17 03:10:18;;;;;;;7.15;3.67;;;;;;;;;;5132076;27;20043;-67
2021/04/17 03:12:45;;;;;;;11.20;4.20;;;;;;;;;;5155971;27;20038;-68
2021/04/17 03:15:11;;;;;;;10.00;3.50;;;;;;;;;;5146573;27;20137;-67
2021/04/17 03:17:37;;;;;;;14.60;4.25;;;;;;;;;;5122379;27;20039;-67
2021/04/17 03:20:08;;;;;;;14.90;4.30;;;;;;;;;;5134813;27;20050;-67
2021/04/17 03:22:34;;;;;;;8.70;3.83;;;;;;;;;;5131224;27;20493;-67
2021/04/17 03:25:02;;;;;;;15.32;3.13;;;;;;;;;;5133454;27;20550;-67
2021/04/17 03:27:28;;;;;;;12.88;4.63;;;;;;;;;;5148976;27;20517;-67
2021/04/17 03:29:54;;;;;;;10.38;3.70;;;;;;;;;;5146822;27;20047;-67
2021/04/17 03:32:20;;;;;;;7.63;3.25;;;;;;;;;;5150238;27;20046;-67
2021/04/17 03:34:47;;;;;;;13.40;3.28;;;;;;;;;;5150304;27;20474;-67
2021/04/17 03:37:13;;;;;;;14.05;3.95;;;;;;;;;;5159000;27;20034;-67
2021/04/17 03:39:39;;;;;;;13.00;3.88;;;;;;;;;;5126159;27;20046;-67
2021/04/17 03:42:05;;;;;;;8.73;3.70;;;;;;;;;;5148769;27;20031;-67
2021/04/17 03:44:32;;;;;;;11.25;3.50;;;;;;;;;;5147302;27;20161;-67
2021/04/17 03:46:58;;;;;;;10.93;3.22;;;;;;;;;;5125589;27;20077;-67
2021/04/17 03:49:24;;;;;;;11.25;3.55;;;;;;;;;;5137241;27;21623;-68
2021/04/17 03:51:50;;;;;;;11.18;4.00;;;;;;;;;;5147014;27;20056;-68
2021/04/17 03:54:17;;;;;;;10.45;3.85;;;;;;;;;;5151849;27;20054;-68
2021/04/17 03:56:43;;;;;;;13.25;4.15;;;;;;;;;;5144250;27;20046;-67
2021/04/17 03:59:09;;;;;;;10.38;3.38;;;;;;;;;;5150083;27;20146;-67
2021/04/17 04:01:35;;;;;;;12.93;3.95;;;;;;;;;;5156222;27;20487;-68
2021/04/17 04:04:01;;;;;;;15.85;3.70;;;;;;;;;;5158023;27;20110;-67
2021/04/17 04:06:27;;;;;;;12.25;3.97;;;;;;;;;;5134258;27;20477;-67
2021/04/17 04:08:54;;;;;;;10.35;3.20;;;;;;;;;;5132483;27;20068;-68
2021/04/17 04:11:20;;;;;;;8.77;3.55;;;;;;;;;;5124822;27;20045;-67
2021/04/17 04:13:47;;;;;;;13.13;3.40;;;;;;;;;;5121638;27;20039;-67
2021/04/17 04:16:13;;;;;;;16.13;4.05;;;;;;;;;;5148422;27;20038;-67
2021/04/17 04:18:39;;;;;;;7.38;3.42;;;;;;;;;;5138885;27;20043;-67
2021/04/17 04:21:06;;;;;;;15.80;3.80;;;;;;;;;;5146234;27;20095;-68
2021/04/17 04:23:32;;;;;;;19.15;3.75;;;;;;;;;;5140636;27;20065;-67
2021/04/17 04:25:58;;;;;;;17.33;3.60;;;;;;;;;;5148774;27;20066;-67
2021/04/17 04:28:24;;;;;;;13.20;3.20;;;;;;;;;;5124384;27;20121;-67
2021/04/17 04:30:50;;;;;;;10.18;3.92;;;;;;;;;;5146359;27;20069;-69
2021/04/17 04:33:17;;;;;;;14.82;4.30;;;;;;;;;;5107986;27;20091;-67
2021/04/17 04:35:43;;;;;;;13.25;3.45;;;;;;;;;;5153942;27;20102;-67
2021/04/17 04:38:09;;;;;;;14.75;4.13;;;;;;;;;;5151752;27;20039;-68
2021/04/17 04:40:35;;;;;;;12.32;4.10;;;;;;;;;;5147474;27;20087;-67
2021/04/17 04:43:01;;;;;;;14.20;4.00;;;;;;;;;;5129944;27;20058;-68
2021/04/17 04:45:28;;;;;;;14.77;3.97;;;;;;;;;;5130636;27;20177;-67
2021/04/17 04:47:54;;;;;;;10.48;4.43;;;;;;;;;;5123837;27;20462;-68
2021/04/17 04:50:20;;;;;;;16.05;4.35;;;;;;;;;;5138663;27;20034;-67
2021/04/17 04:52:47;;;;;;;18.98;5.03;;;;;;;;;;5122662;27;20423;-67
2021/04/17 04:55:13;;;;;;;13.90;4.13;;;;;;;;;;5146863;27;20105;-67
2021/04/17 04:57:39;;;;;;;18.75;5.55;;;;;;;;;;5154569;27;20035;-67
2021/04/17 05:00:06;;;;;;;20.13;6.30;;;;;;;;;;5147219;27;20062;-67
2021/04/17 05:02:32;;;;;;;22.70;5.40;;;;;;;;;;5154562;27;20054;-67
2021/04/17 05:04:59;;;;;;;21.00;5.43;;;;;;;;;;5154120;27;20125;-68
2021/04/17 05:07:25;;;;;;;18.23;5.03;;;;;;;;;;5154902;27;20039;-68
2021/04/17 05:09:51;;;;;;;19.10;5.30;;;;;;;;;;5120341;27;20051;-67
2021/04/17 05:12:18;;;;;;;22.38;5.75;;;;;;;;;;5148256;27;20051;-70
2021/04/17 05:14:44;;;;;;;23.85;4.70;;;;;;;;;;5142584;27;20122;-68
2021/04/17 05:17:10;;;;;;;25.05;5.47;;;;;;;;;;5144032;27;20039;-67
2021/04/17 05:19:39;;;;;;;18.58;5.45;;;;;;;;;;5126418;27;20035;-68
2021/04/17 05:22:06;;;;;;;19.95;4.50;;;;;;;;;;5104978;27;20043;-67
2021/04/17 05:24:32;;;;;;;15.27;4.68;;;;;;;;;;5138019;27;20424;-67
2021/04/17 05:26:59;;;;;;;14.70;4.10;;;;;;;;;;5143107;27;20510;-68
2021/04/17 05:29:25;;;;;;;17.25;4.22;;;;;;;;;;5145236;27;20043;-67
2021/04/17 05:31:51;;;;;;;15.57;4.07;;;;;;;;;;5144799;27;20431;-68
2021/04/17 05:34:18;;;;;;;13.43;3.90;;;;;;;;;;5121178;27;20039;-68
2021/04/17 05:36:44;;;;;;;25.67;5.43;;;;;;;;;;5141372;27;20470;-67
2021/04/17 05:39:10;;;;;;;12.07;4.07;;;;;;;;;;5122362;27;20046;-68
2021/04/17 05:41:36;;;;;;;16.10;3.92;;;;;;;;;;5150378;27;20035;-68
2021/04/17 05:44:12;;;;;;;18.48;4.75;;;;;;;;;;5145328;27;20117;-68
2021/04/17 05:46:39;;;;;;;28.38;5.05;;;;;;;;;;5148910;27;20031;-68
2021/04/17 05:49:05;;;;;;;19.35;4.45;;;;;;;;;;5148905;27;20057;-68
2021/04/17 05:51:32;;;;;;;24.58;5.20;;;;;;;;;;5139978;27;20038;-68
2021/04/17 05:53:59;;;;;;;19.05;4.22;;;;;;;;;;5143584;27;20125;-68
2021/04/17 05:56:25;;;;;;;17.08;4.15;;;;;;;;;;5146469;27;20159;-68
2021/04/17 05:58:51;;;;;;;15.40;4.32;;;;;;;;;;5145210;27;20046;-68
2021/04/17 06:01:17;;;;;;;20.13;4.38;;;;;;;;;;5128945;27;20083;-68
2021/04/17 06:03:43;;;;;;;16.77;4.35;;;;;;;;;;5153206;27;20051;-68
2021/04/17 06:06:09;;;;;;;18.77;4.35;;;;;;;;;;5153168;27;20038;-68
2021/04/17 06:08:37;;;;;;;19.88;4.20;;;;;;;;;;5124844;27;20154;-68
2021/04/17 06:11:05;;;;;;;22.38;4.70;;;;;;;;;;5131660;27;20061;-68
2021/04/17 06:13:32;;;;;;;21.10;4.10;;;;;;;;;;5141980;27;20122;-68
2021/04/17 06:15:58;;;;;;;15.35;3.72;;;;;;;;;;5120251;27;20063;-68
2021/04/17 06:18:24;;;;;;;22.88;5.00;;;;;;;;;;5121750;27;20036;-68
2021/04/17 06:20:50;;;;;;;18.55;4.15;;;;;;;;;;5122270;27;20063;-68
2021/04/17 06:23:17;;;;;;;15.18;3.65;;;;;;;;;;5123161;27;20121;-68
2021/04/17 06:25:43;;;;;;;19.67;3.40;;;;;;;;;;5125873;27;20186;-68
2021/04/17 06:28:09;;;;;;;16.27;3.60;;;;;;;;;;5123365;27;20376;-68
2021/04/17 06:30:35;;;;;;;22.90;5.57;;;;;;;;;;5121868;27;20409;-68
2021/04/17 06:33:01;;;;;;;21.08;4.60;;;;;;;;;;5125393;27;20085;-70
2021/04/17 06:35:28;;;;;;;20.13;4.03;;;;;;;;;;5126904;27;20031;-68
2021/04/17 06:37:55;;;;;;;18.95;4.40;;;;;;;;;;5128356;27;20043;-69
2021/04/17 06:40:21;;;;;;;18.73;4.55;;;;;;;;;;5113464;27;20047;-70
2021/04/17 06:42:47;;;;;;;18.70;4.30;;;;;;;;;;5120136;27;20122;-70
2021/04/17 06:45:14;;;;;;;21.50;4.93;;;;;;;;;;5122777;27;20519;-68
2021/04/17 06:47:42;;;;;;;16.63;4.22;;;;;;;;;;5126601;27;20051;-68
2021/04/17 06:50:09;;;;;;;19.60;5.57;;;;;;;;;;5118653;28;20048;-69
2021/04/17 06:52:37;;;;;;;19.88;4.68;;;;;;;;;;5121728;27;20039;-73
2021/04/17 06:55:05;;;;;;;16.15;4.30;;;;;;;;;;5124622;27;20035;-69
2021/04/17 06:57:31;;;;;;;15.90;5.00;;;;;;;;;;5118794;27;20050;-68
2021/04/17 06:59:57;;;;;;;19.85;5.22;;;;;;;;;;5128998;27;20051;-68
2021/04/17 07:02:23;;;;;;;21.58;4.93;;;;;;;;;;5106430;27;20135;-70
2021/04/17 07:04:51;;;;;;;20.60;5.03;;;;;;;;;;5129439;28;20047;-70
2021/04/17 07:07:17;;;;;;;18.65;4.22;;;;;;;;;;5124163;28;20386;-69
2021/04/17 07:09:43;;;;;;;18.02;4.53;;;;;;;;;;5131820;27;20074;-69
2021/04/17 07:12:10;;;;;;;16.08;4.40;;;;;;;;;;5129998;28;20122;-71
2021/04/17 07:14:49;;;;;;;15.00;4.35;;;;;;;;;;5122159;28;20058;-70
2021/04/17 07:17:16;;;;;;;16.20;4.25;;;;;;;;;;5130190;28;20388;-70
2021/04/17 07:20:02;;;;;;;15.07;4.50;;;;;;;;;;5131594;27;20117;-69
2021/04/17 07:22:29;;;;;;;13.77;4.55;;;;;;;;;;5130345;28;20043;-69
2021/04/17 07:24:57;;;;;;;12.25;3.90;;;;;;;;;;5131565;28;20039;-69
2021/04/17 07:27:30;;;;;;;18.63;4.60;;;;;;;;;;5131208;27;20043;-69
2021/04/17 07:29:56;;;;;;;13.43;3.40;;;;;;;;;;5128525;28;20492;-71
2021/04/17 07:32:23;;;;;;;11.00;3.47;;;;;;;;;;5125826;28;20493;-70
2021/04/17 07:35:08;;;;;;;11.80;3.60;;;;;;;;;;5129760;27;20065;-70
2021/04/17 07:37:34;;;;;;;11.52;4.05;;;;;;;;;;5121934;28;20482;-69
2021/04/17 07:40:16;;;;;;;11.32;3.45;;;;;;;;;;5123777;28;20515;-72
2021/04/17 07:42:43;;;;;;;12.93;4.05;;;;;;;;;;5110502;28;20058;-70
2021/04/17 07:45:18;;;;;;;13.50;4.10;;;;;;;;;;5124959;27;20042;-70
2021/04/17 07:47:44;;;;;;;14.45;3.60;;;;;;;;;;5126390;28;20039;-71
2021/04/17 07:50:11;;;;;;;9.75;2.95;;;;;;;;;;5124387;28;20058;-70
2021/04/17 07:52:38;;;;;;;14.38;3.65;;;;;;;;;;5113631;28;20042;-71
2021/04/17 07:55:05;;;;;;;14.32;3.55;;;;;;;;;;5130527;27;20114;-71
2021/04/17 07:57:37;;;;;;;11.57;3.17;;;;;;;;;;5128577;27;20302;-70
2021/04/17 08:00:05;;;;;;;12.52;3.55;;;;;;;;;;5127372;27;20039;-70
2021/04/17 08:02:32;;;;;;;9.95;3.33;;;;;;;;;;5125480;27;20874;-70
2021/04/17 08:04:59;;;;;;;8.40;3.60;;;;;;;;;;5122861;27;20144;-70
2021/04/17 08:07:25;;;;;;;12.57;3.20;;;;;;;;;;5127720;27;20055;-69
2021/04/17 08:09:52;;;;;;;11.68;3.63;;;;;;;;;;5125139;27;20043;-69
2021/04/17 08:12:20;;;;;;;19.75;4.20;;;;;;;;;;5124868;27;20085;-69
2021/04/17 08:14:46;;;;;;;8.20;3.03;;;;;;;;;;5126871;27;20047;-69
2021/04/17 08:17:13;;;;;;;9.38;3.58;;;;;;;;;;5124444;27;20047;-70
2021/04/17 08:19:39;;;;;;;11.30;3.63;;;;;;;;;;5143250;27;20043;-68
2021/04/17 08:22:05;;;;;;;9.25;2.90;;;;;;;;;;5109004;27;20104;-70
2021/04/17 08:24:32;;;;;;;10.07;3.17;;;;;;;;;;5119605;27;20047;-70
2021/04/17 08:27:00;;;;;;;7.38;2.90;;;;;;;;;;5145440;27;20043;-69
2021/04/17 08:29:45;;;;;;;6.90;3.13;;;;;;;;;;5131098;27;20035;-69
2021/04/17 08:32:43;;;;;;;13.40;3.75;;;;;;;;;;5133769;27;20039;-69
2021/04/17 08:35:13;;;;;;;9.40;3.45;;;;;;;;;;5116499;27;20379;-70
2021/04/17 08:40:33;;;;;;;8.25;3.08;;;;;;;;;;5147466;27;20070;-70
2021/04/17 08:43:03;;;;;;;9.73;3.30;;;;;;;;;;5125713;27;20478;-70
2021/04/17 08:45:30;;;;;;;9.35;3.20;;;;;;;;;;5134317;27;20047;-70
2021/04/17 08:47:57;;;;;;;8.88;2.97;;;;;;;;;;5155149;27;20050;-71
2021/04/17 08:50:36;;;;;;;10.07;3.08;;;;;;;;;;5137384;27;20038;-71
2021/04/17 08:53:06;;;;;;;11.10;3.53;;;;;;;;;;5141322;27;20035;-70
2021/04/17 08:55:38;;;;;;;10.93;3.33;;;;;;;;;;5145758;27;20442;-70
2021/04/17 08:58:10;;;;;;;8.73;3.75;;;;;;;;;;5149438;27;20390;-70
2021/04/17 09:00:37;;;;;;;10.90;3.00;;;;;;;;;;5114738;27;20065;-70
2021/04/17 09:03:03;;;;;;;9.15;3.00;;;;;;;;;;5114038;27;20055;-71
2021/04/17 09:05:46;;;;;;;6.40;2.65;;;;;;;;;;5153220;27;20542;-71
2021/04/17 09:08:14;;;;;;;7.95;3.15;;;;;;;;;;5134642;27;20546;-71
2021/04/17 09:10:40;;;;;;;12.02;3.28;;;;;;;;;;5118851;27;20170;-69
2021/04/17 09:13:17;;;;;;;9.35;2.38;;;;;;;;;;5147278;27;20486;-68
2021/04/17 09:15:51;;;;;;;8.07;2.45;;;;;;;;;;5133031;27;20134;-71
2021/04/17 09:18:36;;;;;;;8.50;2.78;;;;;;;;;;5153800;27;20073;-71
2021/04/17 09:21:11;;;;;;;8.30;3.13;;;;;;;;;;5135745;27;20098;-71
2021/04/17 09:23:39;;;;;;;8.57;2.53;;;;;;;;;;5117454;27;21007;-68
2021/04/17 09:26:07;;;;;;;7.80;2.95;;;;;;;;;;5153966;27;20049;-69
2021/04/17 09:28:38;;;;;;;10.80;3.05;;;;;;;;;;5134795;27;20129;-68
2021/04/17 09:31:05;;;;;;;9.88;3.17;;;;;;;;;;5153196;27;20067;-70
2021/04/17 09:33:31;;;;;;;6.47;2.33;;;;;;;;;;5148264;27;20046;-67
2021/04/17 09:35:57;;;;;;;11.48;2.40;;;;;;;;;;5148942;27;20058;-69
2021/04/17 09:38:29;;;;;;;9.15;2.40;;;;;;;;;;5148659;27;20042;-69
2021/04/17 09:40:56;;;;;;;7.18;2.75;;;;;;;;;;5126762;27;20043;-69
2021/04/17 09:43:25;;;;;;;6.75;2.97;;;;;;;;;;5150652;27;20039;-70
2021/04/17 09:45:51;;;;;;;10.13;2.97;;;;;;;;;;5153329;27;20422;-69
2021/04/17 09:48:20;;;;;;;9.35;2.60;;;;;;;;;;5150817;27;20162;-69
2021/04/17 09:50:47;;;;;;;7.35;2.67;;;;;;;;;;5131321;27;20592;-69
2021/04/17 09:53:18;;;;;;;7.70;2.63;;;;;;;;;;5152966;27;20068;-69
2021/04/17 09:55:48;;;;;;;11.85;3.25;;;;;;;;;;5145555;27;20035;-68
2021/04/17 09:58:37;;;;;;;12.18;2.50;;;;;;;;;;5134618;27;20065;-69
2021/04/17 10:01:10;;;;;;;14.55;3.08;;;;;;;;;;5149063;27;20034;-69
2021/04/17 10:03:37;;;;;;;11.45;2.85;;;;;;;;;;5151641;27;20038;-69
2021/04/17 10:06:04;;;;;;;12.27;2.60;;;;;;;;;;5135059;27;20039;-69
2021/04/17 10:08:34;;;;;;;10.80;2.80;;;;;;;;;;5151367;27;20038;-69
2021/04/17 10:11:01;;;;;;;9.13;2.72;;;;;;;;;;5145207;27;20034;-69
2021/04/17 10:13:44;;;;;;;8.80;2.95;;;;;;;;;;5153120;27;20039;-70
2021/04/17 10:16:12;;;;;;;12.07;3.00;;;;;;;;;;5129699;27;20055;-69
2021/04/17 10:18:39;;;;;;;10.52;3.50;;;;;;;;;;5129826;27;20039;-69
2021/04/17 10:21:06;;;;;;;9.75;2.33;;;;;;;;;;5129368;27;20570;-69
2021/04/17 10:23:33;;;;;;;8.55;2.63;;;;;;;;;;5127546;27;20104;-70
2021/04/17 10:26:03;;;;;;;9.35;2.90;;;;;;;;;;5130277;27;20066;-70
2021/04/17 10:28:31;;;;;;;7.80;2.83;;;;;;;;;;5128655;27;20043;-71
2021/04/17 10:31:01;;;;;;;7.25;2.95;;;;;;;;;;5132004;27;20459;-69
2021/04/17 10:33:29;;;;;;;8.27;2.60;;;;;;;;;;5129915;27;20100;-71
2021/04/17 10:35:56;;;;;;;12.18;3.17;;;;;;;;;;5131545;27;20470;-70
2021/04/17 10:38:25;;;;;;;6.93;2.47;;;;;;;;;;5126855;27;20147;-68
2021/04/17 10:40:52;;;;;;;7.50;2.53;;;;;;;;;;5117266;27;20097;-69
2021/04/17 10:43:18;;;;;;;8.77;2.47;;;;;;;;;;5119452;27;20055;-69
2021/04/17 10:45:45;;;;;;;6.45;2.42;;;;;;;;;;5121521;27;20047;-69
2021/04/17 10:48:14;;;;;;;10.05;2.53;;;;;;;;;;5119473;27;20070;-69
2021/04/17 10:51:02;;;;;;;8.75;2.75;;;;;;;;;;5131842;27;20498;-69
2021/04/17 10:53:33;;;;;;;7.50;2.75;;;;;;;;;;5119952;27;20042;-69
2021/04/17 10:56:01;;;;;;;6.93;2.20;;;;;;;;;;5129591;27;20523;-69
2021/04/17 10:58:27;;;;;;;8.00;2.75;;;;;;;;;;5130447;27;20044;-69
2021/04/17 11:01:05;;;;;;;7.43;2.20;;;;;;;;;;5130974;27;20031;-69
2021/04/17 11:03:39;;;;;;;10.35;2.70;;;;;;;;;;5120239;27;20054;-69
2021/04/17 11:06:19;;;;;;;7.03;2.78;;;;;;;;;;5131202;27;20084;-68
2021/04/17 11:08:46;;;;;;;8.32;2.92;;;;;;;;;;5119872;28;20126;-68
2021/04/17 11:11:13;;;;;;;7.93;2.83;;;;;;;;;;5130993;28;20069;-68
2021/04/17 11:13:44;;;;;;;11.18;3.50;;;;;;;;;;5125683;28;20066;-68
2021/04/17 11:16:12;;;;;;;7.43;2.70;;;;;;;;;;5150760;27;20137;-70
2021/04/17 11:18:44;;;;;;;9.00;2.72;;;;;;;;;;5148706;27;20096;-71
2021/04/17 11:21:11;;;;;;;9.30;2.65;;;;;;;;;;5130545;27;20062;-70
2021/04/17 11:23:37;;;;;;;7.45;2.22;;;;;;;;;;5149425;27;20053;-73
2021/04/17 11:26:05;;;;;;;8.02;2.70;;;;;;;;;;5143618;27;20067;-71
2021/04/17 11:28:31;;;;;;;8.30;3.28;;;;;;;;;;5152162;27;20041;-71
2021/04/17 11:30:57;;;;;;;7.45;2.60;;;;;;;;;;5131520;27;20109;-72
2021/04/17 11:33:24;;;;;;;9.43;2.88;;;;;;;;;;5139794;27;20331;-69
2021/04/17 11:35:50;;;;;;;7.25;2.45;;;;;;;;;;5153657;27;20042;-70
2021/04/17 11:38:17;;;;;;;10.30;2.60;;;;;;;;;;5153525;27;20451;-70
2021/04/17 11:40:43;;;;;;;11.82;2.78;;;;;;;;;;5151576;27;20050;-69
2021/04/17 11:43:09;;;;;;;7.18;2.38;;;;;;;;;;5155739;27;20130;-70
2021/04/17 11:45:35;;;;;;;6.07;2.53;;;;;;;;;;5143863;27;20039;-70
2021/04/17 11:48:04;;;;;;;6.95;2.90;;;;;;;;;;5124339;27;20038;-69
2021/04/17 11:50:30;;;;;;;7.25;2.42;;;;;;;;;;5143281;27;20121;-70
2021/04/17 11:52:57;;;;;;;9.25;2.60;;;;;;;;;;5155869;27;20053;-70
2021/04/17 11:55:23;;;;;;;6.10;2.20;;;;;;;;;;5147167;27;20523;-70
2021/04/17 11:57:50;;;;;;;6.85;2.58;;;;;;;;;;5147854;27;20042;-73
2021/04/17 12:00:17;;;;;;;11.02;2.30;;;;;;;;;;5146236;27;20403;-70
2021/04/17 12:02:43;;;;;;;4.88;1.98;;;;;;;;;;5156369;27;20047;-69
2021/04/17 12:05:09;;;;;;;6.47;2.28;;;;;;;;;;5137964;27;20102;-68
2021/04/17 12:07:36;;;;;;;6.13;2.38;;;;;;;;;;5156783;27;20051;-68
2021/04/17 12:10:03;;;;;;;8.18;2.28;;;;;;;;;;5155854;27;20047;-68
2021/04/17 12:12:29;;;;;;;8.35;2.53;;;;;;;;;;5155570;27;20047;-69
2021/04/17 12:14:55;;;;;;;5.28;2.25;;;;;;;;;;5152713;27;20126;-68
2021/04/17 12:17:22;;;;;;;8.88;2.30;;;;;;;;;;5154777;27;20042;-68
2021/04/17 12:19:48;;;;;;;7.82;2.25;;;;;;;;;;5134711;27;20489;-68
2021/04/17 12:22:14;;;;;;;7.25;2.28;;;;;;;;;;5145577;27;20492;-68
2021/04/17 12:24:40;;;;;;;7.05;2.35;;;;;;;;;;5136621;27;20047;-70
2021/04/17 12:27:07;;;;;;;8.68;2.15;;;;;;;;;;5124999;27;20039;-69
2021/04/17 12:29:33;;;;;;;7.57;2.75;;;;;;;;;;5141315;27;20043;-69
2021/04/17 12:31:59;;;;;;;7.30;2.03;;;;;;;;;;5154523;27;20446;-69
2021/04/17 12:34:25;;;;;;;5.85;2.38;;;;;;;;;;5145849;27;20047;-69
2021/04/17 12:36:51;;;;;;;8.05;2.40;;;;;;;;;;5139718;27;20130;-69
2021/04/17 12:39:17;;;;;;;6.53;2.50;;;;;;;;;;5155269;27;20043;-69
2021/04/17 12:41:44;;;;;;;11.48;2.63;;;;;;;;;;5136140;27;20535;-69
2021/04/17 12:44:10;;;;;;;9.02;2.58;;;;;;;;;;5151714;27;20050;-69
2021/04/17 12:46:40;;;;;;;6.25;2.22;;;;;;;;;;5149816;27;20122;-69
2021/04/17 12:49:06;;;;;;;5.13;2.20;;;;;;;;;;5129402;27;20050;-69
2021/04/17 12:51:32;;;;;;;8.60;2.30;;;;;;;;;;5145196;27;20041;-69
2021/04/17 12:53:59;;;;;;;5.90;2.05;;;;;;;;;;5141145;27;20048;-69
2021/04/17 12:56:25;;;;;;;5.38;2.10;;;;;;;;;;5154935;27;20043;-69
2021/04/17 12:58:55;;;;;;;9.50;1.98;;;;;;;;;;5145695;27;20047;-69
2021/04/17 13:01:21;;;;;;;7.03;2.53;;;;;;;;;;5144803;27;20101;-69
2021/04/17 13:03:47;;;;;;;4.53;2.05;;;;;;;;;;5151319;27;20039;-69
2021/04/17 13:06:13;;;;;;;7.35;2.25;;;;;;;;;;5136849;27;20045;-69
2021/04/17 13:08:39;;;;;;;6.40;2.08;;;;;;;;;;5154225;27;20105;-71
2021/04/17 13:11:06;;;;;;;7.05;2.60;;;;;;;;;;5150040;27;20450;-70
2021/04/17 13:13:32;;;;;;;8.95;2.67;;;;;;;;;;5147462;27;20039;-70
2021/04/17 13:16:02;;;;;;;3.88;1.80;;;;;;;;;;5142012;27;20051;-70
2021/04/17 13:18:28;;;;;;;4.97;2.13;;;;;;;;;;5148963;27;20053;-69
2021/04/17 13:20:55;;;;;;;6.28;2.03;;;;;;;;;;5141956;27;20045;-70
2021/04/17 13:23:21;;;;;;;7.18;2.20;;;;;;;;;;5149431;27;20045;-69
2021/04/17 13:25:47;;;;;;;5.40;1.90;;;;;;;;;;5145381;27;20042;-70
2021/04/17 13:28:13;;;;;;;4.55;1.98;;;;;;;;;;5143541;27;20060;-70
2021/04/17 13:30:39;;;;;;;5.95;2.08;;;;;;;;;;5115679;27;20396;-70
2021/04/17 13:33:06;;;;;;;4.88;2.25;;;;;;;;;;5151974;27;20893;-69
2021/04/17 13:35:32;;;;;;;7.63;2.70;;;;;;;;;;5144813;27;20066;-69
2021/04/17 13:37:58;;;;;;;9.25;2.90;;;;;;;;;;5149355;27;20073;-68
2021/04/17 13:40:24;;;;;;;7.50;2.28;;;;;;;;;;5140764;27;20034;-70
2021/04/17 13:42:50;;;;;;;5.57;2.35;;;;;;;;;;5145436;27;20042;-70
2021/04/17 13:45:17;;;;;;;5.82;2.20;;;;;;;;;;5127929;27;20046;-69
2021/04/17 13:47:43;;;;;;;6.55;2.20;;;;;;;;;;5144578;27;20043;-70
2021/04/17 13:50:09;;;;;;;8.23;2.20;;;;;;;;;;5138321;27;20099;-69
2021/04/17 13:52:36;;;;;;;6.88;2.53;;;;;;;;;;5143218;27;20045;-69
2021/04/17 13:55:02;;;;;;;9.40;2.25;;;;;;;;;;5132607;27;20505;-68
2021/04/17 13:57:28;;;;;;;7.75;2.60;;;;;;;;;;5140478;27;20039;-69
2021/04/17 13:59:55;;;;;;;6.35;2.05;;;;;;;;;;5136507;27;20031;-69
2021/04/17 14:02:21;;;;;;;6.65;2.10;;;;;;;;;;5138811;27;20030;-69
2021/04/17 14:04:47;;;;;;;5.35;1.92;;;;;;;;;;5124945;27;20051;-69
2021/04/17 14:07:14;;;;;;;6.65;2.53;;;;;;;;;;5144595;27;20034;-69
2021/04/17 14:09:40;;;;;;;4.50;2.10;;;;;;;;;;5135552;27;20050;-70
2021/04/17 14:12:06;;;;;;;3.60;2.00;;;;;;;;;;5146860;27;21705;-70
2021/04/17 14:14:33;;;;;;;5.43;2.03;;;;;;;;;;5145131;27;20075;-71
2021/04/17 14:16:59;;;;;;;5.70;2.33;;;;;;;;;;5147427;27;20056;-71
2021/04/17 14:19:26;;;;;;;6.88;2.60;;;;;;;;;;5141580;27;20081;-70
2021/04/17 14:21:52;;;;;;;11.13;2.58;;;;;;;;;;5116602;27;20035;-71
2021/04/17 14:24:18;;;;;;;7.57;2.38;;;;;;;;;;5139193;27;20039;-71
2021/04/17 14:26:45;;;;;;;5.43;2.17;;;;;;;;;;5144036;27;20051;-71
2021/04/17 14:29:11;;;;;;;6.05;2.05;;;;;;;;;;5145127;27;20051;-71
2021/04/17 14:31:37;;;;;;;6.13;2.13;;;;;;;;;;5148722;27;20042;-70
2021/04/17 14:34:05;;;;;;;5.95;1.98;;;;;;;;;;5125371;27;20046;-71
2021/04/17 14:36:31;;;;;;;4.85;1.88;;;;;;;;;;5129616;27;20035;-72
2021/04/17 14:38:58;;;;;;;4.30;1.73;;;;;;;;;;5142403;27;20039;-72
2021/04/17 14:41:24;;;;;;;5.55;1.73;;;;;;;;;;5134163;27;20065;-72